sensor_id;sensor_type;location;lat;lon;timestamp;P1;durP1;ratioP1;P2;durP2;ratioP2
15931;SDS011;8065;49.520;11.284;2022-10-16T00:01:37;1.70;;;1.60;;
15931;SDS011;8065;49.520;11.284;2022-10-16T00:04:04;1.60;;;1.50;;
15931;SDS011;8065;49.520;11.284;2022-10-16T00:06:30;2.87;;;1.47;;
15931;SDS011;8065;49.520;11.284;2022-10-16T00:08:57;5.73;;;1.50;;
15931;SDS011;8065;49.520;11.284;2022-10-16T00:11:24;2.27;;;1.50;;
15931;SDS011;8065;49.520;11.284;2022-10-16T00:13:56;1.50;;;1.40;;
15931;SDS011;8065;49.520;11.284;2022-10-16T00:16:25;1.30;;;1.20;;
15931;SDS011;8065;49.520;11.284;2022-10-16T00:18:52;2.97;;;1.73;;
15931;SDS011;8065;49.520;11.284;2022-10-16T00:21:20;1.43;;;1.33;;
15931;SDS011;8065;49.520;11.284;2022-10-16T00:23:50;2.07;;;1.40;;
15931;SDS011;8065;49.520;11.284;2022-10-16T00:26:17;4.13;;;1.47;;
15931;SDS011;8065;49.520;11.284;2022-10-16T00:28:45;2.63;;;1.33;;
15931;SDS011;8065;49.520;11.284;2022-10-16T00:31:13;1.47;;;1.37;;
15931;SDS011;8065;49.520;11.284;2022-10-16T00:33:40;1.97;;;1.23;;
15931;SDS011;8065;49.520;11.284;2022-10-16T00:36:08;2.57;;;1.37;;
15931;SDS011;8065;49.520;11.284;2022-10-16T00:38:37;3.67;;;1.30;;
15931;SDS011;8065;49.520;11.284;2022-10-16T00:41:03;2.17;;;1.57;;
15931;SDS011;8065;49.520;11.284;2022-10-16T00:43:35;3.73;;;1.37;;
15931;SDS011;8065;49.520;11.284;2022-10-16T00:46:05;2.03;;;1.50;;
15931;SDS011;8065;49.520;11.284;2022-10-16T00:48:37;1.40;;;1.30;;
15931;SDS011;8065;49.520;11.284;2022-10-16T00:51:04;1.43;;;1.33;;
15931;SDS011;8065;49.520;11.284;2022-10-16T00:53:33;2.63;;;1.50;;
15931;SDS011;8065;49.520;11.284;2022-10-16T00:56:00;1.97;;;1.30;;
15931;SDS011;8065;49.520;11.284;2022-10-16T00:58:28;3.37;;;1.20;;
15931;SDS011;8065;49.520;11.284;2022-10-16T01:00:54;1.40;;;1.30;;
15931;SDS011;8065;49.520;11.284;2022-10-16T01:03:22;3.17;;;1.57;;
15931;SDS011;8065;49.520;11.284;2022-10-16T01:05:55;2.13;;;1.40;;
15931;SDS011;8065;49.520;11.284;2022-10-16T01:08:44;1.87;;;1.47;;
15931;SDS011;8065;49.520;11.284;2022-10-16T01:11:20;1.40;;;1.30;;
15931;SDS011;8065;49.520;11.284;2022-10-16T01:13:52;4.10;;;1.63;;
15931;SDS011;8065;49.520;11.284;2022-10-16T01:16:23;2.63;;;1.50;;
15931;SDS011;8065;49.520;11.284;2022-10-16T01:18:59;1.60;;;1.50;;
15931;SDS011;8065;49.520;11.284;2022-10-16T01:21:33;5.00;;;1.77;;
15931;SDS011;8065;49.520;11.284;2022-10-16T01:24:03;1.30;;;1.30;;
15931;SDS011;8065;49.520;11.284;2022-10-16T01:26:38;2.07;;;1.70;;
15931;SDS011;8065;49.520;11.284;2022-10-16T01:29:20;4.70;;;1.50;;
15931;SDS011;8065;49.520;11.284;2022-10-16T01:31:50;3.83;;;1.60;;
15931;SDS011;8065;49.520;11.284;2022-10-16T01:34:23;1.80;;;1.43;;
15931;SDS011;8065;49.520;11.284;2022-10-16T01:36:57;2.87;;;1.40;;
15931;SDS011;8065;49.520;11.284;2022-10-16T01:39:30;1.73;;;1.40;;
15931;SDS011;8065;49.520;11.284;2022-10-16T01:42:02;1.33;;;1.33;;
15931;SDS011;8065;49.520;11.284;2022-10-16T01:44:33;1.83;;;1.50;;
15931;SDS011;8065;49.520;11.284;2022-10-16T01:47:02;1.63;;;1.40;;
15931;SDS011;8065;49.520;11.284;2022-10-16T01:49:31;2.93;;;1.30;;
15931;SDS011;8065;49.520;11.284;2022-10-16T01:52:02;1.67;;;1.57;;
15931;SDS011;8065;49.520;11.284;2022-10-16T01:54:31;3.37;;;1.37;;
15931;SDS011;8065;49.520;11.284;2022-10-16T01:57:01;1.67;;;1.43;;
15931;SDS011;8065;49.520;11.284;2022-10-16T01:59:31;2.70;;;1.60;;
15931;SDS011;8065;49.520;11.284;2022-10-16T02:02:04;2.67;;;1.60;;
15931;SDS011;8065;49.520;11.284;2022-10-16T02:04:34;2.83;;;1.43;;
15931;SDS011;8065;49.520;11.284;2022-10-16T02:07:05;2.13;;;1.80;;
15931;SDS011;8065;49.520;11.284;2022-10-16T02:09:33;2.57;;;1.50;;
15931;SDS011;8065;49.520;11.284;2022-10-16T02:12:01;2.03;;;1.50;;
15931;SDS011;8065;49.520;11.284;2022-10-16T02:14:33;1.70;;;1.50;;
15931;SDS011;8065;49.520;11.284;2022-10-16T02:17:09;2.93;;;1.40;;
15931;SDS011;8065;49.520;11.284;2022-10-16T02:19:37;1.60;;;1.23;;
15931;SDS011;8065;49.520;11.284;2022-10-16T02:22:04;4.37;;;1.70;;
15931;SDS011;8065;49.520;11.284;2022-10-16T02:24:33;2.10;;;1.60;;
15931;SDS011;8065;49.520;11.284;2022-10-16T02:27:05;1.70;;;1.50;;
15931;SDS011;8065;49.520;11.284;2022-10-16T02:29:38;1.70;;;1.60;;
15931;SDS011;8065;49.520;11.284;2022-10-16T02:32:09;4.33;;;1.60;;
15931;SDS011;8065;49.520;11.284;2022-10-16T02:34:38;1.73;;;1.40;;
15931;SDS011;8065;49.520;11.284;2022-10-16T02:37:06;4.60;;;1.60;;
15931;SDS011;8065;49.520;11.284;2022-10-16T02:39:35;1.83;;;1.50;;
15931;SDS011;8065;49.520;11.284;2022-10-16T02:42:03;3.10;;;1.43;;
15931;SDS011;8065;49.520;11.284;2022-10-16T02:44:29;2.70;;;1.40;;
15931;SDS011;8065;49.520;11.284;2022-10-16T02:46:57;1.83;;;1.40;;
15931;SDS011;8065;49.520;11.284;2022-10-16T02:49:23;1.67;;;1.57;;
15931;SDS011;8065;49.520;11.284;2022-10-16T02:51:50;2.10;;;1.47;;
15931;SDS011;8065;49.520;11.284;2022-10-16T02:54:16;3.90;;;1.80;;
15931;SDS011;8065;49.520;11.284;2022-10-16T02:56:43;2.00;;;1.50;;
15931;SDS011;8065;49.520;11.284;2022-10-16T02:59:09;1.67;;;1.47;;
15931;SDS011;8065;49.520;11.284;2022-10-16T03:01:36;3.17;;;1.60;;
15931;SDS011;8065;49.520;11.284;2022-10-16T03:04:03;1.57;;;1.40;;
15931;SDS011;8065;49.520;11.284;2022-10-16T03:06:30;4.80;;;1.80;;
15931;SDS011;8065;49.520;11.284;2022-10-16T03:08:56;2.37;;;1.50;;
15931;SDS011;8065;49.520;11.284;2022-10-16T03:11:23;4.50;;;1.60;;
15931;SDS011;8065;49.520;11.284;2022-10-16T03:13:49;4.80;;;1.90;;
15931;SDS011;8065;49.520;11.284;2022-10-16T03:16:16;1.50;;;1.43;;
15931;SDS011;8065;49.520;11.284;2022-10-16T03:18:42;2.97;;;1.53;;
15931;SDS011;8065;49.520;11.284;2022-10-16T03:21:10;3.50;;;1.47;;
15931;SDS011;8065;49.520;11.284;2022-10-16T03:23:36;4.07;;;1.30;;
15931;SDS011;8065;49.520;11.284;2022-10-16T03:26:03;2.33;;;1.67;;
15931;SDS011;8065;49.520;11.284;2022-10-16T03:28:29;2.17;;;1.37;;
15931;SDS011;8065;49.520;11.284;2022-10-16T03:30:56;2.80;;;1.50;;
15931;SDS011;8065;49.520;11.284;2022-10-16T03:33:22;2.13;;;1.40;;
15931;SDS011;8065;49.520;11.284;2022-10-16T03:35:52;5.83;;;1.60;;
15931;SDS011;8065;49.520;11.284;2022-10-16T03:38:20;3.20;;;1.50;;
15931;SDS011;8065;49.520;11.284;2022-10-16T03:40:47;1.83;;;1.30;;
15931;SDS011;8065;49.520;11.284;2022-10-16T03:43:14;1.47;;;1.40;;
15931;SDS011;8065;49.520;11.284;2022-10-16T03:45:40;1.30;;;1.30;;
15931;SDS011;8065;49.520;11.284;2022-10-16T03:48:07;1.50;;;1.40;;
15931;SDS011;8065;49.520;11.284;2022-10-16T03:50:33;1.33;;;1.27;;
15931;SDS011;8065;49.520;11.284;2022-10-16T03:53:00;1.53;;;1.43;;
15931;SDS011;8065;49.520;11.284;2022-10-16T03:55:27;2.30;;;1.30;;
15931;SDS011;8065;49.520;11.284;2022-10-16T03:57:54;1.30;;;1.27;;
15931;SDS011;8065;49.520;11.284;2022-10-16T04:00:20;1.93;;;1.30;;
15931;SDS011;8065;49.520;11.284;2022-10-16T04:02:47;2.73;;;1.40;;
15931;SDS011;8065;49.520;11.284;2022-10-16T04:05:13;1.40;;;1.30;;
15931;SDS011;8065;49.520;11.284;2022-10-16T04:07:40;2.23;;;1.70;;
15931;SDS011;8065;49.520;11.284;2022-10-16T04:10:06;1.30;;;1.30;;
15931;SDS011;8065;49.520;11.284;2022-10-16T04:12:35;1.50;;;1.40;;
15931;SDS011;8065;49.520;11.284;2022-10-16T04:15:01;1.47;;;1.40;;
15931;SDS011;8065;49.520;11.284;2022-10-16T04:17:28;1.50;;;1.40;;
15931;SDS011;8065;49.520;11.284;2022-10-16T04:19:55;2.97;;;1.60;;
15931;SDS011;8065;49.520;11.284;2022-10-16T04:22:21;2.27;;;1.50;;
15931;SDS011;8065;49.520;11.284;2022-10-16T04:24:48;2.03;;;1.50;;
15931;SDS011;8065;49.520;11.284;2022-10-16T04:27:14;2.07;;;1.47;;
15931;SDS011;8065;49.520;11.284;2022-10-16T04:29:42;3.80;;;2.00;;
15931;SDS011;8065;49.520;11.284;2022-10-16T04:32:08;2.63;;;1.50;;
15931;SDS011;8065;49.520;11.284;2022-10-16T04:34:35;1.40;;;1.30;;
15931;SDS011;8065;49.520;11.284;2022-10-16T04:37:03;2.23;;;1.50;;
15931;SDS011;8065;49.520;11.284;2022-10-16T04:39:29;1.70;;;1.60;;
15931;SDS011;8065;49.520;11.284;2022-10-16T04:41:56;2.77;;;1.70;;
15931;SDS011;8065;49.520;11.284;2022-10-16T04:44:22;2.37;;;1.80;;
15931;SDS011;8065;49.520;11.284;2022-10-16T04:46:51;3.37;;;1.50;;
15931;SDS011;8065;49.520;11.284;2022-10-16T04:49:17;1.60;;;1.50;;
15931;SDS011;8065;49.520;11.284;2022-10-16T04:51:44;1.60;;;1.50;;
15931;SDS011;8065;49.520;11.284;2022-10-16T04:54:11;2.50;;;1.80;;
15931;SDS011;8065;49.520;11.284;2022-10-16T04:56:37;1.50;;;1.40;;
15931;SDS011;8065;49.520;11.284;2022-10-16T04:59:11;3.00;;;1.60;;
15931;SDS011;8065;49.520;11.284;2022-10-16T05:01:38;3.97;;;1.80;;
15931;SDS011;8065;49.520;11.284;2022-10-16T05:04:06;4.13;;;1.90;;
15931;SDS011;8065;49.520;11.284;2022-10-16T05:06:32;2.77;;;1.60;;
15931;SDS011;8065;49.520;11.284;2022-10-16T05:08:59;1.60;;;1.50;;
15931;SDS011;8065;49.520;11.284;2022-10-16T05:11:25;1.60;;;1.50;;
15931;SDS011;8065;49.520;11.284;2022-10-16T05:13:52;2.93;;;1.60;;
15931;SDS011;8065;49.520;11.284;2022-10-16T05:16:18;2.87;;;1.80;;
15931;SDS011;8065;49.520;11.284;2022-10-16T05:18:45;2.83;;;1.80;;
15931;SDS011;8065;49.520;11.284;2022-10-16T05:21:13;1.77;;;1.50;;
15931;SDS011;8065;49.520;11.284;2022-10-16T05:23:39;1.63;;;1.53;;
15931;SDS011;8065;49.520;11.284;2022-10-16T05:26:05;4.17;;;1.60;;
15931;SDS011;8065;49.520;11.284;2022-10-16T05:28:32;3.43;;;1.70;;
15931;SDS011;8065;49.520;11.284;2022-10-16T05:30:58;1.93;;;1.70;;
15931;SDS011;8065;49.520;11.284;2022-10-16T05:33:25;2.23;;;1.93;;
15931;SDS011;8065;49.520;11.284;2022-10-16T05:35:52;1.77;;;1.63;;
15931;SDS011;8065;49.520;11.284;2022-10-16T05:38:20;2.77;;;1.63;;
15931;SDS011;8065;49.520;11.284;2022-10-16T05:40:50;2.47;;;1.80;;
15931;SDS011;8065;49.520;11.284;2022-10-16T05:43:17;2.50;;;1.80;;
15931;SDS011;8065;49.520;11.284;2022-10-16T05:45:43;4.63;;;1.73;;
15931;SDS011;8065;49.520;11.284;2022-10-16T05:48:10;1.60;;;1.50;;
15931;SDS011;8065;49.520;11.284;2022-10-16T05:50:36;1.73;;;1.50;;
15931;SDS011;8065;49.520;11.284;2022-10-16T05:53:03;1.80;;;1.70;;
15931;SDS011;8065;49.520;11.284;2022-10-16T05:55:30;2.47;;;1.67;;
15931;SDS011;8065;49.520;11.284;2022-10-16T05:57:57;3.53;;;1.90;;
15931;SDS011;8065;49.520;11.284;2022-10-16T06:00:23;2.50;;;1.70;;
15931;SDS011;8065;49.520;11.284;2022-10-16T06:02:50;1.77;;;1.63;;
15931;SDS011;8065;49.520;11.284;2022-10-16T06:05:16;2.43;;;1.60;;
15931;SDS011;8065;49.520;11.284;2022-10-16T06:07:43;2.63;;;1.80;;
15931;SDS011;8065;49.520;11.284;2022-10-16T06:10:09;2.00;;;1.90;;
15931;SDS011;8065;49.520;11.284;2022-10-16T06:12:37;2.17;;;2.00;;
15931;SDS011;8065;49.520;11.284;2022-10-16T06:15:04;2.53;;;2.43;;
15931;SDS011;8065;49.520;11.284;2022-10-16T06:17:30;2.90;;;2.70;;
15931;SDS011;8065;49.520;11.284;2022-10-16T06:19:57;2.00;;;1.90;;
15931;SDS011;8065;49.520;11.284;2022-10-16T06:22:23;3.67;;;2.50;;
15931;SDS011;8065;49.520;11.284;2022-10-16T06:24:50;1.90;;;1.80;;
15931;SDS011;8065;49.520;11.284;2022-10-16T06:27:16;2.77;;;1.83;;
15931;SDS011;8065;49.520;11.284;2022-10-16T06:29:44;4.77;;;1.60;;
15931;SDS011;8065;49.520;11.284;2022-10-16T06:32:11;2.90;;;1.80;;
15931;SDS011;8065;49.520;11.284;2022-10-16T06:34:37;3.77;;;1.73;;
15931;SDS011;8065;49.520;11.284;2022-10-16T06:37:05;2.90;;;1.90;;
15931;SDS011;8065;49.520;11.284;2022-10-16T06:39:31;3.03;;;2.20;;
15931;SDS011;8065;49.520;11.284;2022-10-16T06:41:57;4.73;;;2.13;;
15931;SDS011;8065;49.520;11.284;2022-10-16T06:44:24;2.60;;;1.90;;
15931;SDS011;8065;49.520;11.284;2022-10-16T06:46:52;3.13;;;1.60;;
15931;SDS011;8065;49.520;11.284;2022-10-16T06:49:18;2.73;;;2.10;;
15931;SDS011;8065;49.520;11.284;2022-10-16T06:51:47;2.63;;;2.23;;
15931;SDS011;8065;49.520;11.284;2022-10-16T06:54:14;2.10;;;2.00;;
15931;SDS011;8065;49.520;11.284;2022-10-16T06:56:42;2.07;;;1.97;;
15931;SDS011;8065;49.520;11.284;2022-10-16T06:59:09;2.73;;;2.33;;
15931;SDS011;8065;49.520;11.284;2022-10-16T07:01:35;2.80;;;2.60;;
15931;SDS011;8065;49.520;11.284;2022-10-16T07:04:03;2.63;;;2.43;;
15931;SDS011;8065;49.520;11.284;2022-10-16T07:06:31;2.97;;;2.30;;
15931;SDS011;8065;49.520;11.284;2022-10-16T07:09:00;3.03;;;2.20;;
15931;SDS011;8065;49.520;11.284;2022-10-16T07:11:28;3.37;;;2.60;;
15931;SDS011;8065;49.520;11.284;2022-10-16T07:13:54;2.83;;;2.53;;
15931;SDS011;8065;49.520;11.284;2022-10-16T07:16:21;2.70;;;2.27;;
15931;SDS011;8065;49.520;11.284;2022-10-16T07:18:49;2.33;;;2.23;;
15931;SDS011;8065;49.520;11.284;2022-10-16T07:21:18;4.00;;;2.93;;
15931;SDS011;8065;49.520;11.284;2022-10-16T07:23:49;3.47;;;2.70;;
15931;SDS011;8065;49.520;11.284;2022-10-16T07:26:16;3.17;;;2.50;;
15931;SDS011;8065;49.520;11.284;2022-10-16T07:28:43;6.60;;;3.37;;
15931;SDS011;8065;49.520;11.284;2022-10-16T07:31:10;3.00;;;2.80;;
15931;SDS011;8065;49.520;11.284;2022-10-16T07:33:39;3.57;;;2.97;;
15931;SDS011;8065;49.520;11.284;2022-10-16T07:36:09;4.33;;;3.20;;
15931;SDS011;8065;49.520;11.284;2022-10-16T07:38:37;5.20;;;3.03;;
15931;SDS011;8065;49.520;11.284;2022-10-16T07:41:05;3.07;;;2.80;;
15931;SDS011;8065;49.520;11.284;2022-10-16T07:43:32;5.73;;;2.90;;
15931;SDS011;8065;49.520;11.284;2022-10-16T07:45:59;3.03;;;2.73;;
15931;SDS011;8065;49.520;11.284;2022-10-16T07:48:26;4.40;;;3.10;;
15931;SDS011;8065;49.520;11.284;2022-10-16T07:50:56;4.37;;;2.43;;
15931;SDS011;8065;49.520;11.284;2022-10-16T07:53:23;2.53;;;2.33;;
15931;SDS011;8065;49.520;11.284;2022-10-16T07:55:51;2.30;;;2.03;;
15931;SDS011;8065;49.520;11.284;2022-10-16T07:58:18;2.30;;;2.10;;
15931;SDS011;8065;49.520;11.284;2022-10-16T08:00:44;3.27;;;2.20;;
15931;SDS011;8065;49.520;11.284;2022-10-16T08:03:10;2.57;;;2.37;;
15931;SDS011;8065;49.520;11.284;2022-10-16T08:05:37;5.17;;;2.60;;
15931;SDS011;8065;49.520;11.284;2022-10-16T08:08:03;2.83;;;2.60;;
15931;SDS011;8065;49.520;11.284;2022-10-16T08:10:30;2.90;;;2.70;;
15931;SDS011;8065;49.520;11.284;2022-10-16T08:12:58;3.60;;;2.60;;
15931;SDS011;8065;49.520;11.284;2022-10-16T08:15:24;3.63;;;2.87;;
15931;SDS011;8065;49.520;11.284;2022-10-16T08:17:54;3.87;;;2.60;;
15931;SDS011;8065;49.520;11.284;2022-10-16T08:20:22;4.13;;;2.60;;
15931;SDS011;8065;49.520;11.284;2022-10-16T08:22:48;2.80;;;2.50;;
15931;SDS011;8065;49.520;11.284;2022-10-16T08:25:15;2.43;;;2.23;;
15931;SDS011;8065;49.520;11.284;2022-10-16T08:27:41;2.57;;;2.20;;
15931;SDS011;8065;49.520;11.284;2022-10-16T08:30:10;2.23;;;2.03;;
15931;SDS011;8065;49.520;11.284;2022-10-16T08:32:36;2.10;;;1.90;;
15931;SDS011;8065;49.520;11.284;2022-10-16T08:35:03;3.20;;;1.90;;
15931;SDS011;8065;49.520;11.284;2022-10-16T08:37:30;2.67;;;2.10;;
15931;SDS011;8065;49.520;11.284;2022-10-16T08:39:57;1.90;;;1.80;;
15931;SDS011;8065;49.520;11.284;2022-10-16T08:42:28;2.20;;;2.07;;
15931;SDS011;8065;49.520;11.284;2022-10-16T08:45:13;3.80;;;2.63;;
15931;SDS011;8065;49.520;11.284;2022-10-16T08:47:48;3.43;;;2.63;;
15931;SDS011;8065;49.520;11.284;2022-10-16T08:50:19;2.77;;;2.30;;
15931;SDS011;8065;49.520;11.284;2022-10-16T08:52:50;3.50;;;2.33;;
15931;SDS011;8065;49.520;11.284;2022-10-16T08:55:20;2.30;;;2.10;;
15931;SDS011;8065;49.520;11.284;2022-10-16T08:57:55;2.70;;;1.90;;
15931;SDS011;8065;49.520;11.284;2022-10-16T09:00:23;1.80;;;1.70;;
15931;SDS011;8065;49.520;11.284;2022-10-16T09:02:52;2.33;;;1.80;;
15931;SDS011;8065;49.520;11.284;2022-10-16T09:05:32;2.10;;;1.90;;
15931;SDS011;8065;49.520;11.284;2022-10-16T09:08:14;1.93;;;1.80;;
15931;SDS011;8065;49.520;11.284;2022-10-16T09:10:49;1.90;;;1.80;;
15931;SDS011;8065;49.520;11.284;2022-10-16T09:13:23;6.00;;;2.83;;
15931;SDS011;8065;49.520;11.284;2022-10-16T09:15:58;4.47;;;2.50;;
15931;SDS011;8065;49.520;11.284;2022-10-16T09:18:37;6.37;;;1.97;;
15931;SDS011;8065;49.520;11.284;2022-10-16T09:21:13;3.77;;;1.90;;
15931;SDS011;8065;49.520;11.284;2022-10-16T09:23:42;1.87;;;1.67;;
15931;SDS011;8065;49.520;11.284;2022-10-16T09:26:09;1.93;;;1.60;;
15931;SDS011;8065;49.520;11.284;2022-10-16T09:28:39;1.77;;;1.60;;
15931;SDS011;8065;49.520;11.284;2022-10-16T09:31:09;2.57;;;1.73;;
15931;SDS011;8065;49.520;11.284;2022-10-16T09:33:42;3.77;;;1.73;;
15931;SDS011;8065;49.520;11.284;2022-10-16T09:36:10;2.00;;;1.63;;
15931;SDS011;8065;49.520;11.284;2022-10-16T09:38:39;1.83;;;1.60;;
15931;SDS011;8065;49.520;11.284;2022-10-16T09:41:12;2.10;;;1.67;;
15931;SDS011;8065;49.520;11.284;2022-10-16T09:43:46;1.67;;;1.53;;
15931;SDS011;8065;49.520;11.284;2022-10-16T09:46:24;2.73;;;1.53;;
15931;SDS011;8065;49.520;11.284;2022-10-16T09:48:53;2.33;;;1.30;;
15931;SDS011;8065;49.520;11.284;2022-10-16T09:51:23;5.93;;;1.77;;
15931;SDS011;8065;49.520;11.284;2022-10-16T09:53:54;2.60;;;1.40;;
15931;SDS011;8065;49.520;11.284;2022-10-16T09:56:22;2.60;;;1.57;;
15931;SDS011;8065;49.520;11.284;2022-10-16T09:58:51;3.23;;;1.20;;
15931;SDS011;8065;49.520;11.284;2022-10-16T10:01:19;1.50;;;1.40;;
15931;SDS011;8065;49.520;11.284;2022-10-16T10:03:48;1.57;;;1.23;;
15931;SDS011;8065;49.520;11.284;2022-10-16T10:06:20;1.53;;;1.30;;
15931;SDS011;8065;49.520;11.284;2022-10-16T10:11:43;1.93;;;1.10;;
15931;SDS011;8065;49.520;11.284;2022-10-16T10:14:15;2.63;;;1.53;;
15931;SDS011;8065;49.520;11.284;2022-10-16T10:16:44;2.10;;;1.50;;
15931;SDS011;8065;49.520;11.284;2022-10-16T10:19:15;4.57;;;1.40;;
15931;SDS011;8065;49.520;11.284;2022-10-16T10:21:43;1.70;;;1.53;;
15931;SDS011;8065;49.520;11.284;2022-10-16T10:24:10;2.90;;;1.60;;
15931;SDS011;8065;49.520;11.284;2022-10-16T10:26:38;3.00;;;1.50;;
15931;SDS011;8065;49.520;11.284;2022-10-16T10:29:07;1.60;;;1.50;;
15931;SDS011;8065;49.520;11.284;2022-10-16T10:31:41;2.37;;;1.47;;
15931;SDS011;8065;49.520;11.284;2022-10-16T10:34:21;2.73;;;1.50;;
15931;SDS011;8065;49.520;11.284;2022-10-16T10:37:00;3.03;;;1.50;;
15931;SDS011;8065;49.520;11.284;2022-10-16T10:39:35;2.00;;;1.30;;
15931;SDS011;8065;49.520;11.284;2022-10-16T10:42:13;2.50;;;1.57;;
15931;SDS011;8065;49.520;11.284;2022-10-16T10:44:51;1.77;;;1.50;;
15931;SDS011;8065;49.520;11.284;2022-10-16T10:47:29;1.97;;;1.40;;
15931;SDS011;8065;49.520;11.284;2022-10-16T10:50:07;3.00;;;1.57;;
15931;SDS011;8065;49.520;11.284;2022-10-16T10:52:48;1.70;;;1.60;;
15931;SDS011;8065;49.520;11.284;2022-10-16T10:55:23;1.90;;;1.70;;
15931;SDS011;8065;49.520;11.284;2022-10-16T10:58:01;2.37;;;1.40;;
15931;SDS011;8065;49.520;11.284;2022-10-16T11:00:55;2.00;;;1.17;;
15931;SDS011;8065;49.520;11.284;2022-10-16T11:03:46;2.03;;;1.43;;
15931;SDS011;8065;49.520;11.284;2022-10-16T11:06:27;1.50;;;1.40;;
15931;SDS011;8065;49.520;11.284;2022-10-16T11:08:58;1.43;;;1.20;;
15931;SDS011;8065;49.520;11.284;2022-10-16T11:11:29;2.50;;;1.33;;
15931;SDS011;8065;49.520;11.284;2022-10-16T11:14:02;3.27;;;1.40;;
15931;SDS011;8065;49.520;11.284;2022-10-16T11:16:35;3.00;;;1.40;;
15931;SDS011;8065;49.520;11.284;2022-10-16T11:19:08;1.60;;;1.30;;
15931;SDS011;8065;49.520;11.284;2022-10-16T11:21:42;1.33;;;1.23;;
15931;SDS011;8065;49.520;11.284;2022-10-16T11:24:17;2.67;;;1.53;;
15931;SDS011;8065;49.520;11.284;2022-10-16T11:26:48;2.47;;;1.50;;
15931;SDS011;8065;49.520;11.284;2022-10-16T11:29:17;2.10;;;1.60;;
15931;SDS011;8065;49.520;11.284;2022-10-16T11:31:50;1.53;;;1.43;;
15931;SDS011;8065;49.520;11.284;2022-10-16T11:34:22;2.17;;;1.40;;
15931;SDS011;8065;49.520;11.284;2022-10-16T11:36:56;1.70;;;1.30;;
15931;SDS011;8065;49.520;11.284;2022-10-16T11:39:27;3.33;;;1.47;;
15931;SDS011;8065;49.520;11.284;2022-10-16T11:41:56;1.53;;;1.00;;
15931;SDS011;8065;49.520;11.284;2022-10-16T11:44:41;2.20;;;1.17;;
15931;SDS011;8065;49.520;11.284;2022-10-16T11:47:19;1.20;;;1.20;;
15931;SDS011;8065;49.520;11.284;2022-10-16T11:49:53;2.00;;;1.30;;
15931;SDS011;8065;49.520;11.284;2022-10-16T11:52:28;2.43;;;1.50;;
15931;SDS011;8065;49.520;11.284;2022-10-16T11:55:01;1.53;;;1.33;;
15931;SDS011;8065;49.520;11.284;2022-10-16T11:57:38;2.03;;;1.60;;
15931;SDS011;8065;49.520;11.284;2022-10-16T12:00:09;1.37;;;1.20;;
15931;SDS011;8065;49.520;11.284;2022-10-16T12:02:45;2.43;;;1.10;;
15931;SDS011;8065;49.520;11.284;2022-10-16T12:05:19;1.37;;;1.27;;
15931;SDS011;8065;49.520;11.284;2022-10-16T12:07:55;2.20;;;1.23;;
15931;SDS011;8065;49.520;11.284;2022-10-16T12:10:28;1.10;;;1.10;;
15931;SDS011;8065;49.520;11.284;2022-10-16T12:12:57;1.97;;;1.17;;
15931;SDS011;8065;49.520;11.284;2022-10-16T12:15:24;2.23;;;1.20;;
15931;SDS011;8065;49.520;11.284;2022-10-16T12:17:52;2.87;;;1.40;;
15931;SDS011;8065;49.520;11.284;2022-10-16T12:20:27;4.03;;;1.37;;
15931;SDS011;8065;49.520;11.284;2022-10-16T12:22:58;1.37;;;1.27;;
15931;SDS011;8065;49.520;11.284;2022-10-16T12:25:28;1.27;;;1.20;;
15931;SDS011;8065;49.520;11.284;2022-10-16T12:28:00;3.03;;;1.40;;
15931;SDS011;8065;49.520;11.284;2022-10-16T12:30:29;4.63;;;1.30;;
15931;SDS011;8065;49.520;11.284;2022-10-16T12:32:57;1.37;;;1.27;;
15931;SDS011;8065;49.520;11.284;2022-10-16T12:35:27;1.50;;;1.30;;
15931;SDS011;8065;49.520;11.284;2022-10-16T12:38:05;3.23;;;1.30;;
15931;SDS011;8065;49.520;11.284;2022-10-16T12:40:38;2.00;;;1.13;;
15931;SDS011;8065;49.520;11.284;2022-10-16T12:43:12;3.23;;;1.50;;
15931;SDS011;8065;49.520;11.284;2022-10-16T12:45:58;1.20;;;1.17;;
15931;SDS011;8065;49.520;11.284;2022-10-16T12:48:26;1.73;;;1.50;;
15931;SDS011;8065;49.520;11.284;2022-10-16T12:50:53;3.13;;;1.00;;
15931;SDS011;8065;49.520;11.284;2022-10-16T12:53:21;3.80;;;1.30;;
15931;SDS011;8065;49.520;11.284;2022-10-16T12:55:52;2.10;;;1.20;;
15931;SDS011;8065;49.520;11.284;2022-10-16T12:58:31;2.73;;;1.30;;
15931;SDS011;8065;49.520;11.284;2022-10-16T13:01:10;2.40;;;1.30;;
15931;SDS011;8065;49.520;11.284;2022-10-16T13:03:48;1.40;;;1.30;;
15931;SDS011;8065;49.520;11.284;2022-10-16T13:06:30;1.53;;;1.30;;
15931;SDS011;8065;49.520;11.284;2022-10-16T13:12:07;2.50;;;1.17;;
15931;SDS011;8065;49.520;11.284;2022-10-16T13:14:48;1.97;;;1.10;;
15931;SDS011;8065;49.520;11.284;2022-10-16T13:17:30;2.07;;;1.47;;
15931;SDS011;8065;49.520;11.284;2022-10-16T13:20:06;1.87;;;1.70;;
15931;SDS011;8065;49.520;11.284;2022-10-16T13:22:45;1.13;;;1.10;;
15931;SDS011;8065;49.520;11.284;2022-10-16T13:25:21;1.33;;;1.23;;
15931;SDS011;8065;49.520;11.284;2022-10-16T13:27:55;1.40;;;1.30;;
15931;SDS011;8065;49.520;11.284;2022-10-16T13:30:23;1.93;;;1.50;;
15931;SDS011;8065;49.520;11.284;2022-10-16T13:32:53;1.00;;;1.00;;
15931;SDS011;8065;49.520;11.284;2022-10-16T13:35:26;1.83;;;1.23;;
15931;SDS011;8065;49.520;11.284;2022-10-16T13:38:03;2.20;;;1.10;;
15931;SDS011;8065;49.520;11.284;2022-10-16T13:40:48;1.10;;;1.00;;
15931;SDS011;8065;49.520;11.284;2022-10-16T13:43:17;2.03;;;1.20;;
15931;SDS011;8065;49.520;11.284;2022-10-16T13:45:52;4.80;;;1.20;;
15931;SDS011;8065;49.520;11.284;2022-10-16T13:48:19;3.00;;;1.20;;
15931;SDS011;8065;49.520;11.284;2022-10-16T13:50:46;1.57;;;1.40;;
15931;SDS011;8065;49.520;11.284;2022-10-16T13:53:12;2.03;;;1.30;;
15931;SDS011;8065;49.520;11.284;2022-10-16T13:55:40;1.50;;;1.40;;
15931;SDS011;8065;49.520;11.284;2022-10-16T13:58:10;1.30;;;1.30;;
15931;SDS011;8065;49.520;11.284;2022-10-16T14:00:39;1.37;;;1.23;;
15931;SDS011;8065;49.520;11.284;2022-10-16T14:03:13;2.97;;;1.10;;
15931;SDS011;8065;49.520;11.284;2022-10-16T14:05:42;2.10;;;1.00;;
15931;SDS011;8065;49.520;11.284;2022-10-16T14:08:14;1.33;;;1.03;;
15931;SDS011;8065;49.520;11.284;2022-10-16T14:10:41;1.93;;;1.30;;
15931;SDS011;8065;49.520;11.284;2022-10-16T14:13:12;1.20;;;1.10;;
15931;SDS011;8065;49.520;11.284;2022-10-16T14:15:45;2.73;;;1.10;;
15931;SDS011;8065;49.520;11.284;2022-10-16T14:18:15;1.90;;;1.33;;
15931;SDS011;8065;49.520;11.284;2022-10-16T14:20:46;1.70;;;1.10;;
15931;SDS011;8065;49.520;11.284;2022-10-16T14:23:19;1.87;;;1.00;;
15931;SDS011;8065;49.520;11.284;2022-10-16T14:25:47;1.13;;;1.13;;
15931;SDS011;8065;49.520;11.284;2022-10-16T14:28:16;1.80;;;1.00;;
15931;SDS011;8065;49.520;11.284;2022-10-16T14:30:51;3.33;;;1.20;;
15931;SDS011;8065;49.520;11.284;2022-10-16T14:33:20;3.37;;;1.37;;
15931;SDS011;8065;49.520;11.284;2022-10-16T14:35:57;2.90;;;1.30;;
15931;SDS011;8065;49.520;11.284;2022-10-16T14:38:27;2.27;;;1.33;;
15931;SDS011;8065;49.520;11.284;2022-10-16T14:40:54;2.97;;;1.03;;
15931;SDS011;8065;49.520;11.284;2022-10-16T14:43:26;1.53;;;1.43;;
15931;SDS011;8065;49.520;11.284;2022-10-16T14:45:57;2.00;;;1.20;;
15931;SDS011;8065;49.520;11.284;2022-10-16T14:48:24;3.23;;;1.10;;
15931;SDS011;8065;49.520;11.284;2022-10-16T14:50:51;2.67;;;1.23;;
15931;SDS011;8065;49.520;11.284;2022-10-16T14:53:18;3.13;;;1.33;;
15931;SDS011;8065;49.520;11.284;2022-10-16T14:55:44;1.57;;;1.47;;
15931;SDS011;8065;49.520;11.284;2022-10-16T14:58:13;3.97;;;1.40;;
15931;SDS011;8065;49.520;11.284;2022-10-16T15:00:43;1.30;;;1.17;;
15931;SDS011;8065;49.520;11.284;2022-10-16T15:03:10;4.17;;;1.40;;
15931;SDS011;8065;49.520;11.284;2022-10-16T15:05:36;1.30;;;1.20;;
15931;SDS011;8065;49.520;11.284;2022-10-16T15:08:03;1.37;;;1.27;;
15931;SDS011;8065;49.520;11.284;2022-10-16T15:10:30;1.57;;;1.30;;